sensor_id;sensor_type;location;lat;lon;timestamp;pressure;altitude;pressure_sealevel;temperature;humidity
84358;BME280;74548;47.712;9.272;2024-01-06T00:01:36;94499.09;;;8.20;72.49
84358;BME280;74548;47.712;9.272;2024-01-06T00:04:02;94492.94;;;8.19;72.58
84358;BME280;74548;47.712;9.272;2024-01-06T00:06:27;94496.41;;;8.20;72.83
84358;BME280;74548;47.712;9.272;2024-01-06T00:08:52;94496.41;;;8.20;72.91
84358;BME280;74548;47.712;9.272;2024-01-06T00:11:20;94495.91;;;8.18;73.02
84358;BME280;74548;47.712;9.272;2024-01-06T00:13:46;94487.56;;;8.19;73.13
84358;BME280;74548;47.712;9.272;2024-01-06T00:16:11;94495.63;;;8.19;72.71
84358;BME280;74548;47.712;9.272;2024-01-06T00:18:37;94493.72;;;8.20;72.80
84358;BME280;74548;47.712;9.272;2024-01-06T00:21:02;94488.66;;;8.18;72.99
84358;BME280;74548;47.712;9.272;2024-01-06T00:23:28;94493.22;;;8.18;73.38
84358;BME280;74548;47.712;9.272;2024-01-06T00:25:53;94495.13;;;8.17;73.23
84358;BME280;74548;47.712;9.272;2024-01-06T00:28:18;94501.28;;;8.18;73.18
84358;BME280;74548;47.712;9.272;2024-01-06T00:30:44;94500.50;;;8.17;73.34
84358;BME280;74548;47.712;9.272;2024-01-06T00:33:09;94500.50;;;8.17;72.67
84358;BME280;74548;47.712;9.272;2024-01-06T00:35:34;94497.81;;;8.17;72.54
84358;BME280;74548;47.712;9.272;2024-01-06T00:38:00;94491.66;;;8.17;72.91
84358;BME280;74548;47.712;9.272;2024-01-06T00:40:25;94500.50;;;8.17;72.64
84358;BME280;74548;47.712;9.272;2024-01-06T00:45:14;94505.88;;;8.17;72.93
84358;BME280;74548;47.712;9.272;2024-01-06T00:47:40;94509.66;;;8.16;72.71
84358;BME280;74548;47.712;9.272;2024-01-06T00:50:06;94515.03;;;8.16;72.85
84358;BME280;74548;47.712;9.272;2024-01-06T00:52:31;94513.47;;;8.15;72.58
84358;BME280;74548;47.712;9.272;2024-01-06T00:54:56;94515.03;;;8.16;72.70
84358;BME280;74548;47.712;9.272;2024-01-06T00:57:21;94519.63;;;8.16;73.02
84358;BME280;74548;47.712;9.272;2024-01-06T00:59:49;94517.72;;;8.16;72.63
84358;BME280;74548;47.712;9.272;2024-01-06T01:02:15;94523.09;;;8.16;72.66
84358;BME280;74548;47.712;9.272;2024-01-06T01:07:09;94524.22;;;8.15;72.96
84358;BME280;74548;47.712;9.272;2024-01-06T01:09:34;94529.59;;;8.15;72.68
84358;BME280;74548;47.712;9.272;2024-01-06T01:12:00;94526.91;;;8.15;73.20
84358;BME280;74548;47.712;9.272;2024-01-06T01:14:25;94528.75;;;8.14;72.94
84358;BME280;74548;47.712;9.272;2024-01-06T01:19:09;94527.97;;;8.14;72.76
84358;BME280;74548;47.712;9.272;2024-01-06T01:21:34;94535.25;;;8.13;72.95
84358;BME280;74548;47.712;9.272;2024-01-06T01:23:59;94530.66;;;8.14;72.53
84358;BME280;74548;47.712;9.272;2024-01-06T01:26:25;94537.13;;;8.13;72.80
84358;BME280;74548;47.712;9.272;2024-01-06T01:28:50;94546.00;;;8.13;73.01
84358;BME280;74548;47.712;9.272;2024-01-06T01:31:16;94547.88;;;8.13;72.55
84358;BME280;74548;47.712;9.272;2024-01-06T01:33:41;94551.69;;;8.12;72.72
84358;BME280;74548;47.712;9.272;2024-01-06T01:36:06;94560.53;;;8.12;73.13
84358;BME280;74548;47.712;9.272;2024-01-06T01:38:32;94550.56;;;8.13;72.58
84358;BME280;74548;47.712;9.272;2024-01-06T01:40:57;94561.31;;;8.13;72.93
84358;BME280;74548;47.712;9.272;2024-01-06T01:43:24;94564.00;;;8.13;72.88
84358;BME280;74548;47.712;9.272;2024-01-06T01:45:53;94575.84;;;8.12;72.64
84358;BME280;74548;47.712;9.272;2024-01-06T01:48:22;94581.22;;;8.12;73.47
84358;BME280;74548;47.712;9.272;2024-01-06T01:50:48;94576.94;;;8.11;72.58
84358;BME280;74548;47.712;9.272;2024-01-06T01:53:14;94589.28;;;8.12;72.90
84358;BME280;74548;47.712;9.272;2024-01-06T01:55:41;94588.47;;;8.11;73.06
84358;BME280;74548;47.712;9.272;2024-01-06T01:58:07;94596.53;;;8.11;73.04
84358;BME280;74548;47.712;9.272;2024-01-06T02:02:04;94601.13;;;8.11;72.45
84358;BME280;74548;47.712;9.272;2024-01-06T02:04:29;94599.22;;;8.11;72.99
84358;BME280;74548;47.712;9.272;2024-01-06T02:06:54;94598.44;;;8.11;72.58
84358;BME280;74548;47.712;9.272;2024-01-06T02:09:20;94594.16;;;8.10;72.69
84358;BME280;74548;47.712;9.272;2024-01-06T02:11:48;94593.38;;;8.09;72.69
84358;BME280;74548;47.712;9.272;2024-01-06T02:14:13;94585.31;;;8.09;72.55
84358;BME280;74548;47.712;9.272;2024-01-06T02:16:38;94584.50;;;8.09;72.84
84358;BME280;74548;47.712;9.272;2024-01-06T02:19:05;94584.50;;;8.09;72.50
84358;BME280;74548;47.712;9.272;2024-01-06T02:21:35;94572.94;;;8.08;72.88
84358;BME280;74548;47.712;9.272;2024-01-06T02:24:05;94583.69;;;8.08;73.04
84358;BME280;74548;47.712;9.272;2024-01-06T02:26:31;94581.00;;;8.08;72.40
84358;BME280;74548;47.712;9.272;2024-01-06T02:28:56;94590.97;;;8.08;73.04
84358;BME280;74548;47.712;9.272;2024-01-06T02:31:21;94582.91;;;8.08;72.93
84358;BME280;74548;47.712;9.272;2024-01-06T02:33:47;94582.09;;;8.07;72.72
84358;BME280;74548;47.712;9.272;2024-01-06T02:36:12;94590.16;;;8.07;72.91
84358;BME280;74548;47.712;9.272;2024-01-06T02:38:37;94593.66;;;8.08;72.60
84358;BME280;74548;47.712;9.272;2024-01-06T02:41:03;94594.75;;;8.07;72.67
84358;BME280;74548;47.712;9.272;2024-01-06T02:43:28;94593.66;;;8.08;72.60
84358;BME280;74548;47.712;9.272;2024-01-06T02:45:53;94600.91;;;8.07;72.90
84358;BME280;74548;47.712;9.272;2024-01-06T02:48:19;94596.66;;;8.06;72.71
84358;BME280;74548;47.712;9.272;2024-01-06T02:50:44;94608.19;;;8.07;72.58
84358;BME280;74548;47.712;9.272;2024-01-06T02:53:09;94601.22;;;8.06;72.53
84358;BME280;74548;47.712;9.272;2024-01-06T02:55:35;94598.53;;;8.06;72.61
84358;BME280;74548;47.712;9.272;2024-01-06T02:58:00;94602.03;;;8.06;72.71
84358;BME280;74548;47.712;9.272;2024-01-06T03:00:25;94604.72;;;8.06;72.86
84358;BME280;74548;47.712;9.272;2024-01-06T03:02:51;94612.78;;;8.06;72.28
84358;BME280;74548;47.712;9.272;2024-01-06T03:05:16;94609.28;;;8.06;72.46
84358;BME280;74548;47.712;9.272;2024-01-06T03:07:42;94607.69;;;8.05;72.66
84358;BME280;74548;47.712;9.272;2024-01-06T03:10:07;94613.06;;;8.05;72.89
84358;BME280;74548;47.712;9.272;2024-01-06T03:12:33;94607.69;;;8.05;72.82
84358;BME280;74548;47.712;9.272;2024-01-06T03:14:58;94607.69;;;8.05;72.89
84358;BME280;74548;47.712;9.272;2024-01-06T03:17:23;94609.56;;;8.04;72.58
84358;BME280;74548;47.712;9.272;2024-01-06T03:19:49;94612.56;;;8.03;72.62
84358;BME280;74548;47.712;9.272;2024-01-06T03:22:14;94613.38;;;8.03;72.84
84358;BME280;74548;47.712;9.272;2024-01-06T03:24:40;94614.94;;;8.04;72.65
84358;BME280;74548;47.712;9.272;2024-01-06T03:27:05;94612.56;;;8.03;72.78
84358;BME280;74548;47.712;9.272;2024-01-06T03:29:30;94600.22;;;8.02;72.85
84358;BME280;74548;47.712;9.272;2024-01-06T03:31:56;94607.19;;;8.03;72.86
84358;BME280;74548;47.712;9.272;2024-01-06T03:34:21;94609.06;;;8.02;72.75
84358;BME280;74548;47.712;9.272;2024-01-06T03:36:46;94612.56;;;8.03;73.00
84358;BME280;74548;47.712;9.272;2024-01-06T03:39:12;94612.06;;;8.01;72.51
84358;BME280;74548;47.712;9.272;2024-01-06T03:41:39;94612.06;;;8.01;72.53
84358;BME280;74548;47.712;9.272;2024-01-06T03:44:04;94620.91;;;8.01;72.90
84358;BME280;74548;47.712;9.272;2024-01-06T03:46:30;94617.44;;;8.01;72.80
84358;BME280;74548;47.712;9.272;2024-01-06T03:48:55;94614.75;;;8.01;72.17
84358;BME280;74548;47.712;9.272;2024-01-06T03:51:20;94613.63;;;8.02;72.41
84358;BME280;74548;47.712;9.272;2024-01-06T03:53:47;94622.81;;;8.01;72.76
84358;BME280;74548;47.712;9.272;2024-01-06T03:56:13;94618.53;;;8.00;72.53
84358;BME280;74548;47.712;9.272;2024-01-06T03:58:38;94622.00;;;8.00;72.45
84358;BME280;74548;47.712;9.272;2024-01-06T04:01:03;94625.50;;;8.01;73.05
84358;BME280;74548;47.712;9.272;2024-01-06T04:03:29;94627.38;;;8.00;72.75
84358;BME280;74548;47.712;9.272;2024-01-06T04:05:54;94621.22;;;8.00;72.56
84358;BME280;74548;47.712;9.272;2024-01-06T04:08:20;94635.44;;;8.00;72.48
84358;BME280;74548;47.712;9.272;2024-01-06T04:10:45;94634.66;;;8.00;72.42
84358;BME280;74548;47.712;9.272;2024-01-06T04:13:11;94638.13;;;8.00;72.34
84358;BME280;74548;47.712;9.272;2024-01-06T04:15:37;94638.94;;;8.01;72.60
84358;BME280;74548;47.712;9.272;2024-01-06T04:18:03;94638.94;;;8.01;72.58
84358;BME280;74548;47.712;9.272;2024-01-06T04:20:30;94634.66;;;8.00;72.79
84358;BME280;74548;47.712;9.272;2024-01-06T04:22:55;94637.34;;;8.00;72.38
84358;BME280;74548;47.712;9.272;2024-01-06T04:25:20;94644.59;;;7.99;72.55
84358;BME280;74548;47.712;9.272;2024-01-06T04:27:46;94648.38;;;7.98;72.68
84358;BME280;74548;47.712;9.272;2024-01-06T04:30:12;94654.53;;;7.99;72.70
84358;BME280;74548;47.712;9.272;2024-01-06T04:32:38;94651.84;;;7.99;72.73
84358;BME280;74548;47.712;9.272;2024-01-06T04:35:04;94655.34;;;7.99;72.73
84358;BME280;74548;47.712;9.272;2024-01-06T04:37:29;94653.75;;;7.98;72.49
84358;BME280;74548;47.712;9.272;2024-01-06T04:39:55;94652.16;;;7.97;72.17
84358;BME280;74548;47.712;9.272;2024-01-06T04:42:21;94655.63;;;7.98;72.77
84358;BME280;74548;47.712;9.272;2024-01-06T04:44:47;94665.59;;;7.97;72.34
84358;BME280;74548;47.712;9.272;2024-01-06T04:47:13;94662.91;;;7.97;72.35
84358;BME280;74548;47.712;9.272;2024-01-06T04:49:38;94661.31;;;7.96;72.61
84358;BME280;74548;47.712;9.272;2024-01-06T04:52:04;94669.38;;;7.96;72.22
84358;BME280;74548;47.712;9.272;2024-01-06T04:54:29;94668.56;;;7.96;72.65
84358;BME280;74548;47.712;9.272;2024-01-06T04:56:55;94665.88;;;7.96;72.86
84358;BME280;74548;47.712;9.272;2024-01-06T04:59:21;94661.59;;;7.95;72.50
84358;BME280;74548;47.712;9.272;2024-01-06T05:01:46;94666.97;;;7.95;72.70
84358;BME280;74548;47.712;9.272;2024-01-06T05:04:12;94668.88;;;7.94;72.67
84358;BME280;74548;47.712;9.272;2024-01-06T05:06:37;94672.34;;;7.95;72.12
84358;BME280;74548;47.712;9.272;2024-01-06T05:09:02;94674.25;;;7.94;72.52
84358;BME280;74548;47.712;9.272;2024-01-06T05:11:28;94674.25;;;7.94;72.34
84358;BME280;74548;47.712;9.272;2024-01-06T05:13:54;94674.25;;;7.94;72.46
84358;BME280;74548;47.712;9.272;2024-01-06T05:16:19;94674.25;;;7.94;72.21
84358;BME280;74548;47.712;9.272;2024-01-06T05:18:44;94683.09;;;7.95;72.17
84358;BME280;74548;47.712;9.272;2024-01-06T05:21:10;94679.59;;;7.94;72.10
84358;BME280;74548;47.712;9.272;2024-01-06T05:23:35;94683.09;;;7.95;72.34
84358;BME280;74548;47.712;9.272;2024-01-06T05:26:00;94690.34;;;7.94;72.55
84358;BME280;74548;47.712;9.272;2024-01-06T05:28:26;94687.66;;;7.94;72.34
84358;BME280;74548;47.712;9.272;2024-01-06T05:30:51;94681.50;;;7.94;72.04
84358;BME280;74548;47.712;9.272;2024-01-06T05:33:16;94679.88;;;7.93;72.45
84358;BME280;74548;47.712;9.272;2024-01-06T05:35:42;94682.56;;;7.93;72.41
84358;BME280;74548;47.712;9.272;2024-01-06T05:38:07;94686.09;;;7.93;72.53
84358;BME280;74548;47.712;9.272;2024-01-06T05:40:32;94689.56;;;7.94;72.09
84358;BME280;74548;47.712;9.272;2024-01-06T05:42:58;94694.94;;;7.94;72.01
84358;BME280;74548;47.712;9.272;2024-01-06T05:45:23;94696.81;;;7.93;72.39
84358;BME280;74548;47.712;9.272;2024-01-06T05:47:49;94690.63;;;7.93;72.11
84358;BME280;74548;47.712;9.272;2024-01-06T05:50:15;94694.41;;;7.91;72.76
84358;BME280;74548;47.712;9.272;2024-01-06T05:52:41;94697.91;;;7.92;72.26
84358;BME280;74548;47.712;9.272;2024-01-06T05:55:07;94714.03;;;7.92;72.26
84358;BME280;74548;47.712;9.272;2024-01-06T05:57:32;94716.69;;;7.92;72.18
84358;BME280;74548;47.712;9.272;2024-01-06T05:59:58;94711.34;;;7.92;72.66
84358;BME280;74548;47.712;9.272;2024-01-06T06:02:23;94717.81;;;7.91;72.21
84358;BME280;74548;47.712;9.272;2024-01-06T06:04:49;94723.97;;;7.91;72.33
84358;BME280;74548;47.712;9.272;2024-01-06T06:07:14;94723.97;;;7.91;72.51
84358;BME280;74548;47.712;9.272;2024-01-06T06:09:40;94731.25;;;7.91;72.45
84358;BME280;74548;47.712;9.272;2024-01-06T06:12:05;94734.72;;;7.91;72.27
84358;BME280;74548;47.712;9.272;2024-01-06T06:14:31;94733.91;;;7.91;72.21
84358;BME280;74548;47.712;9.272;2024-01-06T06:16:56;94735.03;;;7.90;72.10
84358;BME280;74548;47.712;9.272;2024-01-06T06:19:22;94735.81;;;7.90;72.37
84358;BME280;74548;47.712;9.272;2024-01-06T06:21:47;94731.50;;;7.89;72.41
84358;BME280;74548;47.712;9.272;2024-01-06T06:24:12;94734.19;;;7.89;72.19
84358;BME280;74548;47.712;9.272;2024-01-06T06:26:38;94735.03;;;7.90;72.15
84358;BME280;74548;47.712;9.272;2024-01-06T06:29:04;94729.66;;;7.90;72.07
84358;BME280;74548;47.712;9.272;2024-01-06T06:33:49;94724.56;;;7.88;72.16
84358;BME280;74548;47.712;9.272;2024-01-06T06:36:14;94729.94;;;7.88;72.35
84358;BME280;74548;47.712;9.272;2024-01-06T06:38:40;94736.41;;;7.87;72.11
84358;BME280;74548;47.712;9.272;2024-01-06T06:41:05;94739.88;;;7.88;72.16
84358;BME280;74548;47.712;9.272;2024-01-06T06:43:30;94735.31;;;7.88;71.91
84358;BME280;74548;47.712;9.272;2024-01-06T06:45:56;94742.84;;;7.86;72.21
84358;BME280;74548;47.712;9.272;2024-01-06T06:48:21;94737.47;;;7.86;72.37
84358;BME280;74548;47.712;9.272;2024-01-06T06:50:47;94747.16;;;7.87;72.58
84358;BME280;74548;47.712;9.272;2024-01-06T06:53:12;94748.22;;;7.86;72.13
84358;BME280;74548;47.712;9.272;2024-01-06T06:55:38;94750.63;;;7.88;72.19
84358;BME280;74548;47.712;9.272;2024-01-06T06:58:04;94749.84;;;7.87;72.12
84358;BME280;74548;47.712;9.272;2024-01-06T07:00:30;94749.84;;;7.87;72.27
84358;BME280;74548;47.712;9.272;2024-01-06T07:02:55;94753.59;;;7.86;72.02
84358;BME280;74548;47.712;9.272;2024-01-06T07:05:22;94762.47;;;7.87;72.21
84358;BME280;74548;47.712;9.272;2024-01-06T07:07:47;94760.06;;;7.85;72.27
84358;BME280;74548;47.712;9.272;2024-01-06T07:10:13;94765.16;;;7.87;72.25
84358;BME280;74548;47.712;9.272;2024-01-06T07:12:38;94763.53;;;7.86;72.36
84358;BME280;74548;47.712;9.272;2024-01-06T07:15:04;94778.88;;;7.85;72.21
84358;BME280;74548;47.712;9.272;2024-01-06T07:17:29;94773.50;;;7.85;72.06
84358;BME280;74548;47.712;9.272;2024-01-06T07:19:54;94774.28;;;7.86;72.34
84358;BME280;74548;47.712;9.272;2024-01-06T07:22:20;94764.63;;;7.85;72.03
84358;BME280;74548;47.712;9.272;2024-01-06T07:24:45;94777.28;;;7.84;72.16
84358;BME280;74548;47.712;9.272;2024-01-06T07:27:11;94786.13;;;7.85;72.18
84358;BME280;74548;47.712;9.272;2024-01-06T07:29:36;94786.91;;;7.85;72.49
84358;BME280;74548;47.712;9.272;2024-01-06T07:32:03;94789.91;;;7.84;72.42
84358;BME280;74548;47.712;9.272;2024-01-06T07:34:28;94787.22;;;7.84;72.26
84358;BME280;74548;47.712;9.272;2024-01-06T07:36:53;94792.59;;;7.84;72.01
84358;BME280;74548;47.712;9.272;2024-01-06T07:39:19;94791.81;;;7.83;72.08
84358;BME280;74548;47.712;9.272;2024-01-06T07:41:44;94794.50;;;7.83;71.93
84358;BME280;74548;47.712;9.272;2024-01-06T07:44:11;94797.19;;;7.83;71.97
84358;BME280;74548;47.712;9.272;2024-01-06T07:46:38;94802.56;;;7.83;72.43
84358;BME280;74548;47.712;9.272;2024-01-06T07:51:27;94805.25;;;7.83;72.25
84358;BME280;74548;47.712;9.272;2024-01-06T07:53:52;94815.97;;;7.83;72.16
84358;BME280;74548;47.712;9.272;2024-01-06T07:56:18;94817.06;;;7.82;72.63
84358;BME280;74548;47.712;9.272;2024-01-06T07:58:43;94823.22;;;7.83;72.29
84358;BME280;74548;47.712;9.272;2024-01-06T08:01:09;94811.69;;;7.82;72.27
84358;BME280;74548;47.712;9.272;2024-01-06T08:03:34;94809.00;;;7.82;72.12
84358;BME280;74548;47.712;9.272;2024-01-06T08:08:22;94806.59;;;7.81;71.95
84358;BME280;74548;47.712;9.272;2024-01-06T08:10:47;94819.72;;;7.82;72.45
84358;BME280;74548;47.712;9.272;2024-01-06T08:13:14;94810.88;;;7.82;71.87
84358;BME280;74548;47.712;9.272;2024-01-06T08:15:39;94813.56;;;7.82;72.37
84358;BME280;74548;47.712;9.272;2024-01-06T08:18:04;94811.69;;;7.82;72.23
84358;BME280;74548;47.712;9.272;2024-01-06T08:20:30;94809.00;;;7.82;72.38
84358;BME280;74548;47.712;9.272;2024-01-06T08:22:55;94813.56;;;7.82;72.49
84358;BME280;74548;47.712;9.272;2024-01-06T08:25:20;94805.50;;;7.82;72.00
84358;BME280;74548;47.712;9.272;2024-01-06T08:27:46;94810.88;;;7.82;71.95
84358;BME280;74548;47.712;9.272;2024-01-06T08:30:11;94816.25;;;7.82;71.87
84358;BME280;74548;47.712;9.272;2024-01-06T08:32:37;94812.78;;;7.81;72.24
84358;BME280;74548;47.712;9.272;2024-01-06T08:35:03;94818.16;;;7.81;72.31
84358;BME280;74548;47.712;9.272;2024-01-06T08:37:29;94818.94;;;7.82;72.05
84358;BME280;74548;47.712;9.272;2024-01-06T08:39:55;94820.53;;;7.83;72.04
84358;BME280;74548;47.712;9.272;2024-01-06T08:42:20;94827.78;;;7.82;72.20
84358;BME280;74548;47.712;9.272;2024-01-06T08:44:45;94823.53;;;7.81;71.88
84358;BME280;74548;47.712;9.272;2024-01-06T08:47:11;94821.63;;;7.82;72.10
84358;BME280;74548;47.712;9.272;2024-01-06T08:49:37;94827.78;;;7.82;72.10
84358;BME280;74548;47.712;9.272;2024-01-06T08:54:31;94833.16;;;7.82;71.67
84358;BME280;74548;47.712;9.272;2024-01-06T08:56:57;94836.94;;;7.81;72.30
84358;BME280;74548;47.712;9.272;2024-01-06T08:59:22;94837.75;;;7.82;72.24
84358;BME280;74548;47.712;9.272;2024-01-06T09:01:48;94843.91;;;7.82;72.27
84358;BME280;74548;47.712;9.272;2024-01-06T09:04:13;94843.13;;;7.82;72.23
84358;BME280;74548;47.712;9.272;2024-01-06T09:06:40;94845.81;;;7.82;72.12
84358;BME280;74548;47.712;9.272;2024-01-06T09:09:06;94854.66;;;7.82;72.06
84358;BME280;74548;47.712;9.272;2024-01-06T09:11:33;94851.19;;;7.82;72.05
84358;BME280;74548;47.712;9.272;2024-01-06T09:13:58;94849.28;;;7.82;71.96
84358;BME280;74548;47.712;9.272;2024-01-06T09:16:23;94845.81;;;7.82;72.35
84358;BME280;74548;47.712;9.272;2024-01-06T09:18:49;94849.28;;;7.82;72.38
84358;BME280;74548;47.712;9.272;2024-01-06T09:21:14;94858.44;;;7.81;72.30
84358;BME280;74548;47.712;9.272;2024-01-06T09:23:40;94861.91;;;7.82;71.94
84358;BME280;74548;47.712;9.272;2024-01-06T09:26:05;94863.81;;;7.81;72.29
84358;BME280;74548;47.712;9.272;2024-01-06T09:28:31;94859.53;;;7.80;72.00
84358;BME280;74548;47.712;9.272;2024-01-06T09:33:11;94862.22;;;7.80;72.23
84358;BME280;74548;47.712;9.272;2024-01-06T09:35:40;94863.28;;;7.79;71.96
84358;BME280;74548;47.712;9.272;2024-01-06T09:38:06;94875.66;;;7.80;71.84
84358;BME280;74548;47.712;9.272;2024-01-06T09:40:33;94871.34;;;7.79;72.21
84358;BME280;74548;47.712;9.272;2024-01-06T09:42:59;94870.28;;;7.80;72.19
84358;BME280;74548;47.712;9.272;2024-01-06T09:45:25;94869.75;;;7.78;72.25
84358;BME280;74548;47.712;9.272;2024-01-06T09:47:51;94877.81;;;7.78;72.27
84358;BME280;74548;47.712;9.272;2024-01-06T09:50:20;94877.81;;;7.78;72.06
84358;BME280;74548;47.712;9.272;2024-01-06T09:52:46;94880.50;;;7.78;71.84
84358;BME280;74548;47.712;9.272;2024-01-06T09:55:25;94874.34;;;7.78;71.84
84358;BME280;74548;47.712;9.272;2024-01-06T09:57:54;94873.25;;;7.79;72.15
84358;BME280;74548;47.712;9.272;2024-01-06T10:00:20;94870.56;;;7.79;72.50
84358;BME280;74548;47.712;9.272;2024-01-06T10:02:47;94868.66;;;7.79;71.91
84358;BME280;74548;47.712;9.272;2024-01-06T10:05:15;94868.66;;;7.79;72.09
84358;BME280;74548;47.712;9.272;2024-01-06T10:07:42;94860.59;;;7.79;72.20
84358;BME280;74548;47.712;9.272;2024-01-06T10:10:09;94862.22;;;7.80;71.97
84358;BME280;74548;47.712;9.272;2024-01-06T10:12:37;94864.91;;;7.80;71.69
84358;BME280;74548;47.712;9.272;2024-01-06T10:17:29;94858.72;;;7.80;72.28
84358;BME280;74548;47.712;9.272;2024-01-06T10:19:54;94855.22;;;7.79;72.02
84358;BME280;74548;47.712;9.272;2024-01-06T10:22:20;94851.47;;;7.80;72.07
84358;BME280;74548;47.712;9.272;2024-01-06T10:24:46;94855.22;;;7.79;71.80
84358;BME280;74548;47.712;9.272;2024-01-06T10:27:11;94850.97;;;7.78;71.96
84358;BME280;74548;47.712;9.272;2024-01-06T10:29:37;94851.75;;;7.79;72.04
84358;BME280;74548;47.712;9.272;2024-01-06T10:32:02;94855.22;;;7.79;72.07
84358;BME280;74548;47.712;9.272;2024-01-06T10:34:28;94857.91;;;7.79;71.80
84358;BME280;74548;47.712;9.272;2024-01-06T10:36:54;94859.81;;;7.79;71.93
84358;BME280;74548;47.712;9.272;2024-01-06T10:41:41;94867.59;;;7.80;72.07
84358;BME280;74548;47.712;9.272;2024-01-06T10:44:08;94861.41;;;7.80;72.05
84358;BME280;74548;47.712;9.272;2024-01-06T10:46:34;94862.22;;;7.80;71.92
84358;BME280;74548;47.712;9.272;2024-01-06T10:49:02;94864.91;;;7.80;71.94
84358;BME280;74548;47.712;9.272;2024-01-06T10:51:31;94868.38;;;7.81;71.91
84358;BME280;74548;47.712;9.272;2024-01-06T10:53:57;94872.16;;;7.80;72.38
84358;BME280;74548;47.712;9.272;2024-01-06T10:56:26;94861.41;;;7.80;71.91
84358;BME280;74548;47.712;9.272;2024-01-06T10:58:53;94866.78;;;7.80;72.16
84358;BME280;74548;47.712;9.272;2024-01-06T11:01:22;94858.72;;;7.80;71.88
84358;BME280;74548;47.712;9.272;2024-01-06T11:03:49;94857.91;;;7.79;72.02
84358;BME280;74548;47.712;9.272;2024-01-06T11:06:16;94849.84;;;7.79;71.57
84358;BME280;74548;47.712;9.272;2024-01-06T11:09:17;94847.19;;;7.79;72.08
84358;BME280;74548;47.712;9.272;2024-01-06T11:11:43;94842.09;;;7.78;72.20
84358;BME280;74548;47.712;9.272;2024-01-06T11:14:26;94842.59;;;7.80;72.14
84358;BME280;74548;47.712;9.272;2024-01-06T11:16:53;94836.72;;;7.78;72.07
84358;BME280;74548;47.712;9.272;2024-01-06T11:22:26;94841.00;;;7.79;72.04
84358;BME280;74548;47.712;9.272;2024-01-06T11:24:55;94844.00;;;7.77;71.98
84358;BME280;74548;47.712;9.272;2024-01-06T11:27:25;94842.91;;;7.78;71.99
84358;BME280;74548;47.712;9.272;2024-01-06T11:29:54;94840.47;;;7.77;72.29
84358;BME280;74548;47.712;9.272;2024-01-06T11:32:21;94839.41;;;7.78;72.21
84358;BME280;74548;47.712;9.272;2024-01-06T11:34:53;94842.09;;;7.78;71.99
84358;BME280;74548;47.712;9.272;2024-01-06T11:37:24;94840.47;;;7.77;72.05
84358;BME280;74548;47.712;9.272;2024-01-06T11:39:50;94835.94;;;7.77;71.85
84358;BME280;74548;47.712;9.272;2024-01-06T11:42:16;94831.63;;;7.76;72.09
84358;BME280;74548;47.712;9.272;2024-01-06T11:44:44;94835.13;;;7.77;72.23
84358;BME280;74548;47.712;9.272;2024-01-06T11:47:15;94837.81;;;7.77;72.03
84358;BME280;74548;47.712;9.272;2024-01-06T11:49:44;94830.56;;;7.77;71.91
84358;BME280;74548;47.712;9.272;2024-01-06T11:52:10;94827.88;;;7.77;72.11
84358;BME280;74548;47.712;9.272;2024-01-06T11:54:36;94825.19;;;7.77;72.09
84358;BME280;74548;47.712;9.272;2024-01-06T11:57:01;94820.63;;;7.78;72.03
84358;BME280;74548;47.712;9.272;2024-01-06T11:59:27;94811.75;;;7.77;72.06
84358;BME280;74548;47.712;9.272;2024-01-06T12:04:14;94813.63;;;7.77;71.88
84358;BME280;74548;47.712;9.272;2024-01-06T12:06:42;94807.47;;;7.76;72.10
84358;BME280;74548;47.712;9.272;2024-01-06T12:09:11;94810.16;;;7.76;71.92
84358;BME280;74548;47.712;9.272;2024-01-06T12:14:10;94821.19;;;7.75;71.91
84358;BME280;74548;47.712;9.272;2024-01-06T12:16:36;94809.34;;;7.76;72.16
84358;BME280;74548;47.712;9.272;2024-01-06T12:19:01;94803.97;;;7.76;71.64
84358;BME280;74548;47.712;9.272;2024-01-06T12:21:28;94803.97;;;7.76;71.90
84358;BME280;74548;47.712;9.272;2024-01-06T12:23:54;94805.88;;;7.75;72.15
84358;BME280;74548;47.712;9.272;2024-01-06T12:26:36;94804.28;;;7.74;72.03
84358;BME280;74548;47.712;9.272;2024-01-06T12:29:04;94801.59;;;7.74;71.96
84358;BME280;74548;47.712;9.272;2024-01-06T12:31:29;94794.34;;;7.75;72.17
84358;BME280;74548;47.712;9.272;2024-01-06T12:33:55;94803.47;;;7.74;72.10
84358;BME280;74548;47.712;9.272;2024-01-06T12:36:21;94796.22;;;7.74;72.44
84358;BME280;74548;47.712;9.272;2024-01-06T12:38:46;94791.91;;;7.73;72.16
84358;BME280;74548;47.712;9.272;2024-01-06T12:41:12;94797.28;;;7.73;72.01
84358;BME280;74548;47.712;9.272;2024-01-06T12:43:37;94797.28;;;7.73;71.92
84358;BME280;74548;47.712;9.272;2024-01-06T12:46:03;94801.59;;;7.74;72.38
84358;BME280;74548;47.712;9.272;2024-01-06T12:48:28;94794.59;;;7.73;72.33
84358;BME280;74548;47.712;9.272;2024-01-06T12:53:07;94791.13;;;7.73;72.47
84358;BME280;74548;47.712;9.272;2024-01-06T12:55:32;94796.50;;;7.73;72.25
84358;BME280;74548;47.712;9.272;2024-01-06T12:57:57;94802.66;;;7.73;72.17
84358;BME280;74548;47.712;9.272;2024-01-06T13:00:26;94801.06;;;7.72;71.99
84358;BME280;74548;47.712;9.272;2024-01-06T13:02:51;94796.50;;;7.73;72.20
84358;BME280;74548;47.712;9.272;2024-01-06T13:07:44;94795.72;;;7.72;71.99
84358;BME280;74548;47.712;9.272;2024-01-06T13:10:10;94798.41;;;7.72;71.97
84358;BME280;74548;47.712;9.272;2024-01-06T13:12:35;94801.88;;;7.73;72.01
84358;BME280;74548;47.712;9.272;2024-01-06T13:15:00;94801.06;;;7.72;72.15
84358;BME280;74548;47.712;9.272;2024-01-06T13:17:26;94811.81;;;7.72;72.35
84358;BME280;74548;47.712;9.272;2024-01-06T13:19:51;94807.25;;;7.73;71.80
84358;BME280;74548;47.712;9.272;2024-01-06T13:22:17;94808.03;;;7.73;71.89
84358;BME280;74548;47.712;9.272;2024-01-06T13:24:45;94807.25;;;7.73;71.91
84358;BME280;74548;47.712;9.272;2024-01-06T13:27:11;94804.56;;;7.73;72.00
84358;BME280;74548;47.712;9.272;2024-01-06T13:29:36;94808.03;;;7.73;71.98
84358;BME280;74548;47.712;9.272;2024-01-06T13:32:02;94811.81;;;7.72;71.82
84358;BME280;74548;47.712;9.272;2024-01-06T13:34:27;94816.09;;;7.73;72.12
84358;BME280;74548;47.712;9.272;2024-01-06T13:36:55;94807.25;;;7.73;71.93
84358;BME280;74548;47.712;9.272;2024-01-06T13:39:20;94816.41;;;7.72;71.65
84358;BME280;74548;47.712;9.272;2024-01-06T13:41:46;94819.88;;;7.72;72.19